sensor_id;sensor_type;location;lat;lon;timestamp;P1;durP1;ratioP1;P2;durP2;ratioP2
51836;SDS011;38941;53.254;6.600;2023-03-23T00:01:51;2.80;;;1.50;;
51836;SDS011;38941;53.254;6.600;2023-03-23T00:03:52;3.85;;;1.88;;
51836;SDS011;38941;53.254;6.600;2023-03-23T00:05:59;4.45;;;1.75;;
51836;SDS011;38941;53.254;6.600;2023-03-23T00:08:04;5.93;;;2.63;;
51836;SDS011;38941;53.254;6.600;2023-03-23T00:10:05;4.72;;;2.88;;
51836;SDS011;38941;53.254;6.600;2023-03-23T00:12:07;4.28;;;3.05;;
51836;SDS011;38941;53.254;6.600;2023-03-23T00:14:09;6.35;;;3.70;;
51836;SDS011;38941;53.254;6.600;2023-03-23T00:16:14;7.72;;;3.45;;
51836;SDS011;38941;53.254;6.600;2023-03-23T00:18:18;7.13;;;3.58;;
51836;SDS011;38941;53.254;6.600;2023-03-23T00:20:23;7.38;;;2.65;;
51836;SDS011;38941;53.254;6.600;2023-03-23T00:22:24;4.63;;;2.25;;
51836;SDS011;38941;53.254;6.600;2023-03-23T00:24:25;3.95;;;2.25;;
51836;SDS011;38941;53.254;6.600;2023-03-23T00:26:25;2.97;;;2.03;;
51836;SDS011;38941;53.254;6.600;2023-03-23T00:28:29;4.25;;;1.98;;
51836;SDS011;38941;53.254;6.600;2023-03-23T00:30:30;4.03;;;2.05;;
51836;SDS011;38941;53.254;6.600;2023-03-23T00:32:32;3.80;;;1.88;;
51836;SDS011;38941;53.254;6.600;2023-03-23T00:34:32;4.55;;;2.20;;
51836;SDS011;38941;53.254;6.600;2023-03-23T00:36:34;6.18;;;2.53;;
51836;SDS011;38941;53.254;6.600;2023-03-23T00:38:35;3.65;;;2.33;;
51836;SDS011;38941;53.254;6.600;2023-03-23T00:40:36;3.35;;;2.17;;
51836;SDS011;38941;53.254;6.600;2023-03-23T00:42:37;4.07;;;2.42;;
51836;SDS011;38941;53.254;6.600;2023-03-23T00:44:39;6.18;;;3.38;;
51836;SDS011;38941;53.254;6.600;2023-03-23T00:46:40;4.68;;;2.63;;
51836;SDS011;38941;53.254;6.600;2023-03-23T00:48:44;4.85;;;3.25;;
51836;SDS011;38941;53.254;6.600;2023-03-23T00:50:46;5.78;;;3.63;;
51836;SDS011;38941;53.254;6.600;2023-03-23T00:52:48;9.30;;;4.45;;
51836;SDS011;38941;53.254;6.600;2023-03-23T00:54:52;9.63;;;5.00;;
51836;SDS011;38941;53.254;6.600;2023-03-23T00:56:53;11.13;;;5.05;;
51836;SDS011;38941;53.254;6.600;2023-03-23T00:58:54;11.88;;;6.25;;
51836;SDS011;38941;53.254;6.600;2023-03-23T01:00:55;9.27;;;6.40;;
51836;SDS011;38941;53.254;6.600;2023-03-23T01:02:56;14.18;;;6.75;;
51836;SDS011;38941;53.254;6.600;2023-03-23T01:04:57;14.43;;;7.03;;
51836;SDS011;38941;53.254;6.600;2023-03-23T01:06:59;15.68;;;7.72;;
51836;SDS011;38941;53.254;6.600;2023-03-23T01:09:00;15.68;;;7.00;;
51836;SDS011;38941;53.254;6.600;2023-03-23T01:11:03;13.90;;;6.63;;
51836;SDS011;38941;53.254;6.600;2023-03-23T01:13:05;10.27;;;6.03;;
51836;SDS011;38941;53.254;6.600;2023-03-23T01:15:07;7.35;;;4.43;;
51836;SDS011;38941;53.254;6.600;2023-03-23T01:17:08;6.40;;;3.47;;
51836;SDS011;38941;53.254;6.600;2023-03-23T01:19:09;4.65;;;3.30;;
51836;SDS011;38941;53.254;6.600;2023-03-23T01:21:15;7.53;;;2.90;;
51836;SDS011;38941;53.254;6.600;2023-03-23T01:23:18;4.38;;;2.42;;
51836;SDS011;38941;53.254;6.600;2023-03-23T01:25:18;3.28;;;2.28;;
51836;SDS011;38941;53.254;6.600;2023-03-23T01:27:20;4.78;;;2.53;;
51836;SDS011;38941;53.254;6.600;2023-03-23T01:29:21;7.22;;;2.47;;
51836;SDS011;38941;53.254;6.600;2023-03-23T01:31:23;4.35;;;2.05;;
51836;SDS011;38941;53.254;6.600;2023-03-23T01:33:24;3.58;;;1.58;;
51836;SDS011;38941;53.254;6.600;2023-03-23T01:35:25;3.05;;;1.60;;
51836;SDS011;38941;53.254;6.600;2023-03-23T01:37:26;3.15;;;1.55;;
51836;SDS011;38941;53.254;6.600;2023-03-23T01:39:27;2.30;;;1.52;;
51836;SDS011;38941;53.254;6.600;2023-03-23T01:41:27;3.10;;;2.20;;
51836;SDS011;38941;53.254;6.600;2023-03-23T01:43:29;5.53;;;2.45;;
51836;SDS011;38941;53.254;6.600;2023-03-23T01:45:39;9.10;;;3.20;;
51836;SDS011;38941;53.254;6.600;2023-03-23T01:47:40;6.50;;;3.67;;
51836;SDS011;38941;53.254;6.600;2023-03-23T01:49:42;4.63;;;3.17;;
51836;SDS011;38941;53.254;6.600;2023-03-23T01:51:48;6.32;;;3.55;;
51836;SDS011;38941;53.254;6.600;2023-03-23T01:53:59;6.28;;;3.20;;
51836;SDS011;38941;53.254;6.600;2023-03-23T01:56:02;6.57;;;3.63;;
51836;SDS011;38941;53.254;6.600;2023-03-23T01:58:03;8.18;;;3.58;;
51836;SDS011;38941;53.254;6.600;2023-03-23T02:00:06;9.65;;;3.95;;
51836;SDS011;38941;53.254;6.600;2023-03-23T02:04:16;7.57;;;3.50;;
51836;SDS011;38941;53.254;6.600;2023-03-23T02:06:17;10.48;;;4.20;;
51836;SDS011;38941;53.254;6.600;2023-03-23T02:08:18;9.40;;;4.40;;
51836;SDS011;38941;53.254;6.600;2023-03-23T02:10:20;7.38;;;3.97;;
51836;SDS011;38941;53.254;6.600;2023-03-23T02:12:20;12.18;;;4.13;;
51836;SDS011;38941;53.254;6.600;2023-03-23T02:14:21;8.50;;;4.18;;
51836;SDS011;38941;53.254;6.600;2023-03-23T02:18:53;8.65;;;3.58;;
51836;SDS011;38941;53.254;6.600;2023-03-23T02:21:05;12.63;;;4.97;;
51836;SDS011;38941;53.254;6.600;2023-03-23T02:25:36;10.70;;;4.45;;
51836;SDS011;38941;53.254;6.600;2023-03-23T02:34:56;7.50;;;3.58;;
51836;SDS011;38941;53.254;6.600;2023-03-23T02:37:02;9.02;;;3.78;;
51836;SDS011;38941;53.254;6.600;2023-03-23T02:41:32;6.95;;;3.53;;
51836;SDS011;38941;53.254;6.600;2023-03-23T02:43:40;7.68;;;3.10;;
51836;SDS011;38941;53.254;6.600;2023-03-23T02:45:46;6.50;;;3.42;;
51836;SDS011;38941;53.254;6.600;2023-03-23T02:47:47;6.80;;;3.50;;
51836;SDS011;38941;53.254;6.600;2023-03-23T02:49:52;7.85;;;3.55;;
51836;SDS011;38941;53.254;6.600;2023-03-23T02:51:56;11.35;;;4.68;;
51836;SDS011;38941;53.254;6.600;2023-03-23T02:53:59;7.97;;;3.22;;
51836;SDS011;38941;53.254;6.600;2023-03-23T02:56:02;8.18;;;3.60;;
51836;SDS011;38941;53.254;6.600;2023-03-23T02:58:06;7.03;;;2.70;;
51836;SDS011;38941;53.254;6.600;2023-03-23T03:00:07;7.68;;;3.35;;
51836;SDS011;38941;53.254;6.600;2023-03-23T03:02:14;7.43;;;2.75;;
51836;SDS011;38941;53.254;6.600;2023-03-23T03:04:19;7.38;;;3.08;;
51836;SDS011;38941;53.254;6.600;2023-03-23T03:07:06;5.75;;;3.03;;
51836;SDS011;38941;53.254;6.600;2023-03-23T03:08:57;6.95;;;2.92;;
51836;SDS011;38941;53.254;6.600;2023-03-23T03:11:08;7.00;;;2.63;;
51836;SDS011;38941;53.254;6.600;2023-03-23T03:15:23;6.70;;;2.95;;
51836;SDS011;38941;53.254;6.600;2023-03-23T03:17:34;9.17;;;2.90;;
51836;SDS011;38941;53.254;6.600;2023-03-23T03:19:43;3.78;;;2.70;;
51836;SDS011;38941;53.254;6.600;2023-03-23T03:21:48;6.68;;;2.85;;
51836;SDS011;38941;53.254;6.600;2023-03-23T03:23:50;7.28;;;2.50;;
51836;SDS011;38941;53.254;6.600;2023-03-23T03:25:56;7.85;;;2.58;;
51836;SDS011;38941;53.254;6.600;2023-03-23T03:27:58;6.22;;;2.47;;
51836;SDS011;38941;53.254;6.600;2023-03-23T03:29:59;6.72;;;2.38;;
51836;SDS011;38941;53.254;6.600;2023-03-23T03:32:04;10.38;;;3.20;;
51836;SDS011;38941;53.254;6.600;2023-03-23T03:34:06;5.95;;;2.30;;
51836;SDS011;38941;53.254;6.600;2023-03-23T03:36:08;7.00;;;2.80;;
51836;SDS011;38941;53.254;6.600;2023-03-23T03:38:15;3.58;;;2.17;;
51836;SDS011;38941;53.254;6.600;2023-03-23T03:40:17;6.80;;;2.40;;
51836;SDS011;38941;53.254;6.600;2023-03-23T03:42:20;6.90;;;2.63;;
51836;SDS011;38941;53.254;6.600;2023-03-23T03:44:21;9.38;;;2.50;;
51836;SDS011;38941;53.254;6.600;2023-03-23T03:46:22;7.38;;;3.15;;
51836;SDS011;38941;53.254;6.600;2023-03-23T03:48:26;5.95;;;2.58;;
51836;SDS011;38941;53.254;6.600;2023-03-23T03:50:27;6.13;;;2.40;;
51836;SDS011;38941;53.254;6.600;2023-03-23T03:52:29;5.18;;;2.33;;
51836;SDS011;38941;53.254;6.600;2023-03-23T03:54:30;13.40;;;3.42;;
51836;SDS011;38941;53.254;6.600;2023-03-23T03:56:31;7.85;;;2.58;;
51836;SDS011;38941;53.254;6.600;2023-03-23T03:58:35;6.07;;;2.70;;
51836;SDS011;38941;53.254;6.600;2023-03-23T04:00:36;7.40;;;2.60;;
51836;SDS011;38941;53.254;6.600;2023-03-23T04:02:37;4.30;;;2.65;;
51836;SDS011;38941;53.254;6.600;2023-03-23T04:04:37;5.35;;;2.25;;
51836;SDS011;38941;53.254;6.600;2023-03-23T04:06:38;6.28;;;2.58;;
51836;SDS011;38941;53.254;6.600;2023-03-23T04:08:39;3.33;;;1.80;;
51836;SDS011;38941;53.254;6.600;2023-03-23T04:10:41;9.35;;;2.78;;
51836;SDS011;38941;53.254;6.600;2023-03-23T04:12:42;9.52;;;2.30;;
51836;SDS011;38941;53.254;6.600;2023-03-23T04:14:42;5.00;;;1.98;;
51836;SDS011;38941;53.254;6.600;2023-03-23T04:16:43;5.60;;;1.63;;
51836;SDS011;38941;53.254;6.600;2023-03-23T04:18:44;8.52;;;2.00;;
51836;SDS011;38941;53.254;6.600;2023-03-23T04:20:48;6.45;;;1.75;;
51836;SDS011;38941;53.254;6.600;2023-03-23T04:22:49;2.08;;;1.33;;
51836;SDS011;38941;53.254;6.600;2023-03-23T04:24:50;2.83;;;1.10;;
51836;SDS011;38941;53.254;6.600;2023-03-23T04:26:51;3.65;;;1.33;;
51836;SDS011;38941;53.254;6.600;2023-03-23T04:28:52;2.35;;;1.15;;
51836;SDS011;38941;53.254;6.600;2023-03-23T04:30:53;2.08;;;0.90;;
51836;SDS011;38941;53.254;6.600;2023-03-23T04:32:56;7.65;;;1.00;;
51836;SDS011;38941;53.254;6.600;2023-03-23T04:34:59;2.97;;;0.98;;
51836;SDS011;38941;53.254;6.600;2023-03-23T04:37:00;6.22;;;1.17;;
51836;SDS011;38941;53.254;6.600;2023-03-23T04:39:01;4.68;;;1.23;;
51836;SDS011;38941;53.254;6.600;2023-03-23T04:41:06;4.55;;;1.25;;
51836;SDS011;38941;53.254;6.600;2023-03-23T04:43:08;2.78;;;0.80;;
51836;SDS011;38941;53.254;6.600;2023-03-23T04:45:09;4.50;;;1.00;;
51836;SDS011;38941;53.254;6.600;2023-03-23T04:47:09;5.13;;;0.98;;
51836;SDS011;38941;53.254;6.600;2023-03-23T04:49:11;4.00;;;1.45;;
51836;SDS011;38941;53.254;6.600;2023-03-23T04:51:14;2.47;;;1.35;;
51836;SDS011;38941;53.254;6.600;2023-03-23T04:53:14;1.25;;;0.80;;
51836;SDS011;38941;53.254;6.600;2023-03-23T04:55:18;4.00;;;1.17;;
51836;SDS011;38941;53.254;6.600;2023-03-23T04:57:19;3.78;;;1.55;;
51836;SDS011;38941;53.254;6.600;2023-03-23T04:59:20;7.97;;;1.30;;
51836;SDS011;38941;53.254;6.600;2023-03-23T05:01:21;6.63;;;1.23;;
51836;SDS011;38941;53.254;6.600;2023-03-23T05:03:22;2.63;;;1.30;;
51836;SDS011;38941;53.254;6.600;2023-03-23T05:05:23;5.38;;;1.27;;
51836;SDS011;38941;53.254;6.600;2023-03-23T05:07:24;5.28;;;1.23;;
51836;SDS011;38941;53.254;6.600;2023-03-23T05:09:25;4.00;;;1.05;;
51836;SDS011;38941;53.254;6.600;2023-03-23T05:11:26;4.45;;;1.80;;
51836;SDS011;38941;53.254;6.600;2023-03-23T05:13:27;6.07;;;1.05;;
51836;SDS011;38941;53.254;6.600;2023-03-23T05:15:28;3.95;;;0.95;;
51836;SDS011;38941;53.254;6.600;2023-03-23T05:17:29;5.60;;;2.15;;
51836;SDS011;38941;53.254;6.600;2023-03-23T05:19:32;3.25;;;1.20;;
51836;SDS011;38941;53.254;6.600;2023-03-23T05:21:33;8.18;;;1.42;;
51836;SDS011;38941;53.254;6.600;2023-03-23T05:23:35;4.40;;;1.20;;
51836;SDS011;38941;53.254;6.600;2023-03-23T05:25:36;7.47;;;1.95;;
51836;SDS011;38941;53.254;6.600;2023-03-23T05:27:41;8.45;;;2.10;;
51836;SDS011;38941;53.254;6.600;2023-03-23T05:29:48;9.38;;;2.00;;
51836;SDS011;38941;53.254;6.600;2023-03-23T05:31:49;9.80;;;1.95;;
51836;SDS011;38941;53.254;6.600;2023-03-23T05:33:51;8.18;;;1.90;;
51836;SDS011;38941;53.254;6.600;2023-03-23T05:35:52;5.47;;;1.60;;
51836;SDS011;38941;53.254;6.600;2023-03-23T05:37:53;9.15;;;1.65;;
51836;SDS011;38941;53.254;6.600;2023-03-23T05:39:55;7.20;;;1.80;;
51836;SDS011;38941;53.254;6.600;2023-03-23T05:41:56;7.85;;;2.00;;
51836;SDS011;38941;53.254;6.600;2023-03-23T05:43:57;6.95;;;1.92;;
51836;SDS011;38941;53.254;6.600;2023-03-23T05:45:58;15.68;;;2.20;;
51836;SDS011;38941;53.254;6.600;2023-03-23T05:47:59;8.25;;;1.70;;
51836;SDS011;38941;53.254;6.600;2023-03-23T05:50:00;9.02;;;2.15;;
51836;SDS011;38941;53.254;6.600;2023-03-23T05:52:02;11.20;;;1.92;;
51836;SDS011;38941;53.254;6.600;2023-03-23T05:54:03;15.98;;;3.03;;
51836;SDS011;38941;53.254;6.600;2023-03-23T05:56:04;11.60;;;2.22;;
51836;SDS011;38941;53.254;6.600;2023-03-23T05:58:06;15.73;;;2.92;;
51836;SDS011;38941;53.254;6.600;2023-03-23T06:00:07;11.75;;;2.17;;
51836;SDS011;38941;53.254;6.600;2023-03-23T06:02:19;16.00;;;2.05;;
51836;SDS011;38941;53.254;6.600;2023-03-23T06:04:20;16.05;;;2.72;;
51836;SDS011;38941;53.254;6.600;2023-03-23T06:06:26;12.38;;;2.08;;
51836;SDS011;38941;53.254;6.600;2023-03-23T06:08:27;16.08;;;2.35;;
51836;SDS011;38941;53.254;6.600;2023-03-23T06:10:28;10.63;;;1.80;;
51836;SDS011;38941;53.254;6.600;2023-03-23T06:12:31;13.38;;;2.70;;
51836;SDS011;38941;53.254;6.600;2023-03-23T06:14:31;15.23;;;3.45;;
51836;SDS011;38941;53.254;6.600;2023-03-23T06:16:33;9.52;;;2.38;;
51836;SDS011;38941;53.254;6.600;2023-03-23T06:18:39;12.45;;;2.20;;
51836;SDS011;38941;53.254;6.600;2023-03-23T06:20:41;20.60;;;3.15;;
51836;SDS011;38941;53.254;6.600;2023-03-23T06:22:48;13.63;;;1.92;;
51836;SDS011;38941;53.254;6.600;2023-03-23T06:24:48;16.48;;;1.98;;
51836;SDS011;38941;53.254;6.600;2023-03-23T06:26:50;22.95;;;3.10;;
51836;SDS011;38941;53.254;6.600;2023-03-23T06:28:52;19.42;;;2.70;;
51836;SDS011;38941;53.254;6.600;2023-03-23T06:33:04;14.20;;;2.45;;
51836;SDS011;38941;53.254;6.600;2023-03-23T06:35:05;15.23;;;3.03;;
51836;SDS011;38941;53.254;6.600;2023-03-23T06:37:09;13.30;;;2.30;;
51836;SDS011;38941;53.254;6.600;2023-03-23T06:39:11;10.35;;;2.58;;
51836;SDS011;38941;53.254;6.600;2023-03-23T06:41:12;15.73;;;2.22;;
51836;SDS011;38941;53.254;6.600;2023-03-23T06:43:13;19.92;;;2.08;;
51836;SDS011;38941;53.254;6.600;2023-03-23T06:45:14;7.70;;;1.98;;
51836;SDS011;38941;53.254;6.600;2023-03-23T06:47:16;9.93;;;1.75;;
51836;SDS011;38941;53.254;6.600;2023-03-23T06:49:17;4.90;;;1.25;;
51836;SDS011;38941;53.254;6.600;2023-03-23T06:51:18;9.63;;;1.55;;
51836;SDS011;38941;53.254;6.600;2023-03-23T06:53:20;13.95;;;1.15;;
51836;SDS011;38941;53.254;6.600;2023-03-23T06:55:21;8.13;;;1.70;;
51836;SDS011;38941;53.254;6.600;2023-03-23T06:57:21;6.15;;;1.50;;
51836;SDS011;38941;53.254;6.600;2023-03-23T06:59:22;10.73;;;1.70;;
51836;SDS011;38941;53.254;6.600;2023-03-23T07:01:23;15.35;;;1.80;;
51836;SDS011;38941;53.254;6.600;2023-03-23T07:03:24;9.63;;;1.10;;
51836;SDS011;38941;53.254;6.600;2023-03-23T07:05:26;8.02;;;1.60;;
51836;SDS011;38941;53.254;6.600;2023-03-23T07:07:27;4.88;;;1.33;;
51836;SDS011;38941;53.254;6.600;2023-03-23T07:09:28;8.52;;;1.00;;
51836;SDS011;38941;53.254;6.600;2023-03-23T07:11:28;19.13;;;2.45;;
51836;SDS011;38941;53.254;6.600;2023-03-23T07:13:29;5.28;;;0.80;;
51836;SDS011;38941;53.254;6.600;2023-03-23T07:15:31;8.80;;;1.60;;
51836;SDS011;38941;53.254;6.600;2023-03-23T07:17:32;9.40;;;2.15;;
51836;SDS011;38941;53.254;6.600;2023-03-23T07:19:33;6.80;;;1.63;;
51836;SDS011;38941;53.254;6.600;2023-03-23T07:21:35;14.68;;;2.00;;
51836;SDS011;38941;53.254;6.600;2023-03-23T07:23:36;10.00;;;1.90;;
51836;SDS011;38941;53.254;6.600;2023-03-23T07:25:37;13.75;;;1.88;;
51836;SDS011;38941;53.254;6.600;2023-03-23T07:27:38;10.73;;;1.67;;
51836;SDS011;38941;53.254;6.600;2023-03-23T07:29:39;15.73;;;3.53;;
51836;SDS011;38941;53.254;6.600;2023-03-23T07:31:40;13.02;;;3.10;;
51836;SDS011;38941;53.254;6.600;2023-03-23T07:33:42;11.70;;;1.98;;
51836;SDS011;38941;53.254;6.600;2023-03-23T07:35:45;7.43;;;2.03;;
51836;SDS011;38941;53.254;6.600;2023-03-23T07:37:47;14.05;;;2.42;;
51836;SDS011;38941;53.254;6.600;2023-03-23T07:39:51;12.23;;;1.85;;
51836;SDS011;38941;53.254;6.600;2023-03-23T07:41:52;13.50;;;3.10;;
51836;SDS011;38941;53.254;6.600;2023-03-23T07:43:53;13.45;;;1.92;;
51836;SDS011;38941;53.254;6.600;2023-03-23T07:45:54;18.48;;;2.78;;
51836;SDS011;38941;53.254;6.600;2023-03-23T07:47:55;14.93;;;2.72;;
51836;SDS011;38941;53.254;6.600;2023-03-23T07:49:55;17.92;;;3.17;;
51836;SDS011;38941;53.254;6.600;2023-03-23T07:51:57;21.45;;;3.20;;
51836;SDS011;38941;53.254;6.600;2023-03-23T07:53:58;15.02;;;2.83;;
51836;SDS011;38941;53.254;6.600;2023-03-23T07:55:59;22.65;;;3.00;;
51836;SDS011;38941;53.254;6.600;2023-03-23T07:58:03;14.63;;;2.58;;
51836;SDS011;38941;53.254;6.600;2023-03-23T08:00:04;12.95;;;3.15;;
51836;SDS011;38941;53.254;6.600;2023-03-23T08:02:14;16.48;;;3.90;;
51836;SDS011;38941;53.254;6.600;2023-03-23T08:04:15;13.20;;;2.55;;
51836;SDS011;38941;53.254;6.600;2023-03-23T08:06:15;25.10;;;3.67;;
51836;SDS011;38941;53.254;6.600;2023-03-23T08:08:16;15.38;;;2.75;;
51836;SDS011;38941;53.254;6.600;2023-03-23T08:10:20;17.35;;;3.20;;
51836;SDS011;38941;53.254;6.600;2023-03-23T08:12:22;24.15;;;4.63;;
51836;SDS011;38941;53.254;6.600;2023-03-23T08:14:23;19.42;;;3.63;;
51836;SDS011;38941;53.254;6.600;2023-03-23T08:16:28;17.30;;;3.95;;
51836;SDS011;38941;53.254;6.600;2023-03-23T08:18:30;18.33;;;2.92;;
51836;SDS011;38941;53.254;6.600;2023-03-23T08:20:32;11.07;;;2.42;;
51836;SDS011;38941;53.254;6.600;2023-03-23T08:22:32;23.95;;;3.67;;
51836;SDS011;38941;53.254;6.600;2023-03-23T08:24:35;22.75;;;3.58;;
51836;SDS011;38941;53.254;6.600;2023-03-23T08:26:36;19.67;;;3.72;;
51836;SDS011;38941;53.254;6.600;2023-03-23T08:28:38;28.05;;;4.10;;
51836;SDS011;38941;53.254;6.600;2023-03-23T08:30:38;13.93;;;2.08;;
51836;SDS011;38941;53.254;6.600;2023-03-23T08:32:40;22.30;;;3.60;;
51836;SDS011;38941;53.254;6.600;2023-03-23T08:34:41;21.98;;;4.68;;
51836;SDS011;38941;53.254;6.600;2023-03-23T08:36:43;14.73;;;3.17;;
51836;SDS011;38941;53.254;6.600;2023-03-23T08:38:46;16.83;;;3.13;;
51836;SDS011;38941;53.254;6.600;2023-03-23T08:40:47;19.45;;;3.50;;
51836;SDS011;38941;53.254;6.600;2023-03-23T08:42:49;18.90;;;3.78;;
51836;SDS011;38941;53.254;6.600;2023-03-23T08:44:51;20.25;;;3.50;;
51836;SDS011;38941;53.254;6.600;2023-03-23T08:46:52;21.23;;;2.92;;
51836;SDS011;38941;53.254;6.600;2023-03-23T08:48:56;19.70;;;2.67;;
51836;SDS011;38941;53.254;6.600;2023-03-23T08:50:57;16.95;;;3.42;;
51836;SDS011;38941;53.254;6.600;2023-03-23T08:52:58;16.38;;;2.45;;
51836;SDS011;38941;53.254;6.600;2023-03-23T08:54:59;18.95;;;3.90;;
51836;SDS011;38941;53.254;6.600;2023-03-23T08:57:00;15.73;;;3.78;;
51836;SDS011;38941;53.254;6.600;2023-03-23T08:59:02;13.68;;;2.88;;
51836;SDS011;38941;53.254;6.600;2023-03-23T09:01:03;17.90;;;3.60;;
51836;SDS011;38941;53.254;6.600;2023-03-23T09:03:06;23.40;;;2.58;;
51836;SDS011;38941;53.254;6.600;2023-03-23T09:07:55;21.27;;;3.42;;
51836;SDS011;38941;53.254;6.600;2023-03-23T09:09:58;18.38;;;2.85;;
51836;SDS011;38941;53.254;6.600;2023-03-23T09:11:59;23.42;;;2.45;;
51836;SDS011;38941;53.254;6.600;2023-03-23T09:14:00;15.30;;;3.05;;
51836;SDS011;38941;53.254;6.600;2023-03-23T09:16:02;18.17;;;3.08;;
51836;SDS011;38941;53.254;6.600;2023-03-23T09:18:04;18.85;;;2.95;;
51836;SDS011;38941;53.254;6.600;2023-03-23T09:20:05;16.55;;;3.67;;
51836;SDS011;38941;53.254;6.600;2023-03-23T09:22:11;17.83;;;2.85;;
51836;SDS011;38941;53.254;6.600;2023-03-23T09:24:11;17.15;;;3.45;;
51836;SDS011;38941;53.254;6.600;2023-03-23T09:26:12;16.80;;;4.35;;
51836;SDS011;38941;53.254;6.600;2023-03-23T09:28:13;17.80;;;3.28;;
51836;SDS011;38941;53.254;6.600;2023-03-23T09:30:15;21.67;;;3.63;;
51836;SDS011;38941;53.254;6.600;2023-03-23T09:32:15;17.27;;;2.88;;
51836;SDS011;38941;53.254;6.600;2023-03-23T09:34:16;20.90;;;3.53;;
51836;SDS011;38941;53.254;6.600;2023-03-23T09:36:18;14.45;;;3.40;;
51836;SDS011;38941;53.254;6.600;2023-03-23T09:38:21;13.52;;;3.17;;
51836;SDS011;38941;53.254;6.600;2023-03-23T09:40:23;18.67;;;2.67;;
51836;SDS011;38941;53.254;6.600;2023-03-23T09:50:31;17.92;;;2.50;;
51836;SDS011;38941;53.254;6.600;2023-03-23T09:52:38;14.27;;;3.15;;
51836;SDS011;38941;53.254;6.600;2023-03-23T09:54:41;28.67;;;3.60;;
51836;SDS011;38941;53.254;6.600;2023-03-23T09:56:43;15.80;;;3.50;;
51836;SDS011;38941;53.254;6.600;2023-03-23T09:58:46;12.10;;;1.98;;
51836;SDS011;38941;53.254;6.600;2023-03-23T10:03:04;19.65;;;3.30;;
51836;SDS011;38941;53.254;6.600;2023-03-23T10:07:20;18.58;;;3.38;;
51836;SDS011;38941;53.254;6.600;2023-03-23T10:09:21;7.90;;;1.83;;
51836;SDS011;38941;53.254;6.600;2023-03-23T10:16:09;12.25;;;2.15;;
51836;SDS011;38941;53.254;6.600;2023-03-23T10:20:41;16.10;;;2.38;;
51836;SDS011;38941;53.254;6.600;2023-03-23T10:22:55;17.65;;;3.13;;
51836;SDS011;38941;53.254;6.600;2023-03-23T10:27:25;21.73;;;4.40;;
51836;SDS011;38941;53.254;6.600;2023-03-23T10:29:35;11.85;;;2.90;;
51836;SDS011;38941;53.254;6.600;2023-03-23T10:31:50;16.52;;;2.83;;
51836;SDS011;38941;53.254;6.600;2023-03-23T10:36:36;12.30;;;2.27;;
51836;SDS011;38941;53.254;6.600;2023-03-23T10:43:53;9.00;;;2.30;;
51836;SDS011;38941;53.254;6.600;2023-03-23T10:50:21;15.95;;;3.03;;
51836;SDS011;38941;53.254;6.600;2023-03-23T10:52:41;15.60;;;2.85;;
51836;SDS011;38941;53.254;6.600;2023-03-23T10:54:54;15.57;;;3.38;;
51836;SDS011;38941;53.254;6.600;2023-03-23T10:57:13;11.55;;;1.98;;
51836;SDS011;38941;53.254;6.600;2023-03-23T10:59:30;11.80;;;2.50;;
51836;SDS011;38941;53.254;6.600;2023-03-23T11:01:34;9.40;;;1.75;;
51836;SDS011;38941;53.254;6.600;2023-03-23T11:05:48;12.30;;;3.77;;
51836;SDS011;38941;53.254;6.600;2023-03-23T11:07:55;13.80;;;2.22;;
51836;SDS011;38941;53.254;6.600;2023-03-23T11:10:03;16.60;;;2.20;;
51836;SDS011;38941;53.254;6.600;2023-03-23T11:12:16;18.00;;;3.30;;
51836;SDS011;38941;53.254;6.600;2023-03-23T11:14:39;18.30;;;3.25;;
51836;SDS011;38941;53.254;6.600;2023-03-23T11:16:43;16.38;;;2.30;;
51836;SDS011;38941;53.254;6.600;2023-03-23T11:18:51;12.68;;;2.00;;
51836;SDS011;38941;53.254;6.600;2023-03-23T11:20:54;13.23;;;2.10;;
51836;SDS011;38941;53.254;6.600;2023-03-23T11:22:56;18.52;;;4.00;;
51836;SDS011;38941;53.254;6.600;2023-03-23T11:25:01;19.05;;;3.00;;
51836;SDS011;38941;53.254;6.600;2023-03-23T11:27:05;21.52;;;3.22;;
51836;SDS011;38941;53.254;6.600;2023-03-23T11:29:12;22.17;;;3.05;;
51836;SDS011;38941;53.254;6.600;2023-03-23T11:31:15;20.88;;;3.30;;
51836;SDS011;38941;53.254;6.600;2023-03-23T11:33:17;21.23;;;4.00;;
51836;SDS011;38941;53.254;6.600;2023-03-23T11:35:20;11.35;;;1.92;;
51836;SDS011;38941;53.254;6.600;2023-03-23T11:37:32;16.17;;;3.17;;
51836;SDS011;38941;53.254;6.600;2023-03-23T11:39:48;16.73;;;3.13;;
51836;SDS011;38941;53.254;6.600;2023-03-23T11:42:02;12.23;;;2.00;;
51836;SDS011;38941;53.254;6.600;2023-03-23T11:44:24;11.18;;;1.98;;
51836;SDS011;38941;53.254;6.600;2023-03-23T11:51:16;13.85;;;2.47;;
51836;SDS011;38941;53.254;6.600;2023-03-23T11:57:47;15.07;;;2.72;;
51836;SDS011;38941;53.254;6.600;2023-03-23T11:59:48;9.18;;;1.50;;
51836;SDS011;38941;53.254;6.600;2023-03-23T12:02:35;13.90;;;1.88;;
51836;SDS011;38941;53.254;6.600;2023-03-23T12:16:19;7.82;;;1.45;;
51836;SDS011;38941;53.254;6.600;2023-03-23T12:20:45;10.10;;;1.73;;
51836;SDS011;38941;53.254;6.600;2023-03-23T12:27:47;11.57;;;2.63;;
51836;SDS011;38941;53.254;6.600;2023-03-23T12:34:52;5.32;;;1.33;;
51836;SDS011;38941;53.254;6.600;2023-03-23T12:37:08;12.68;;;1.65;;
51836;SDS011;38941;53.254;6.600;2023-03-23T12:41:52;7.43;;;1.92;;
51836;SDS011;38941;53.254;6.600;2023-03-23T12:48:33;10.02;;;1.42;;
51836;SDS011;38941;53.254;6.600;2023-03-23T12:50:40;13.50;;;1.30;;
51836;SDS011;38941;53.254;6.600;2023-03-23T12:53:25;10.88;;;1.67;;
51836;SDS011;38941;53.254;6.600;2023-03-23T12:55:39;9.70;;;1.73;;
51836;SDS011;38941;53.254;6.600;2023-03-23T12:57:49;14.30;;;1.75;;
51836;SDS011;38941;53.254;6.600;2023-03-23T13:02:31;9.98;;;1.50;;
51836;SDS011;38941;53.254;6.600;2023-03-23T13:04:38;10.80;;;1.65;;
51836;SDS011;38941;53.254;6.600;2023-03-23T13:06:45;9.95;;;1.65;;
51836;SDS011;38941;53.254;6.600;2023-03-23T13:08:49;11.45;;;2.10;;
51836;SDS011;38941;53.254;6.600;2023-03-23T13:11:03;12.65;;;3.10;;
51836;SDS011;38941;53.254;6.600;2023-03-23T13:13:11;7.93;;;1.77;;
51836;SDS011;38941;53.254;6.600;2023-03-23T13:22:21;11.23;;;2.10;;
51836;SDS011;38941;53.254;6.600;2023-03-23T13:24:26;10.90;;;1.70;;
51836;SDS011;38941;53.254;6.600;2023-03-23T13:26:30;12.55;;;2.15;;
51836;SDS011;38941;53.254;6.600;2023-03-23T13:28:32;12.75;;;2.30;;
51836;SDS011;38941;53.254;6.600;2023-03-23T13:30:54;9.70;;;1.83;;
51836;SDS011;38941;53.254;6.600;2023-03-23T13:33:04;13.80;;;1.98;;
51836;SDS011;38941;53.254;6.600;2023-03-23T13:35:11;13.02;;;3.13;;
51836;SDS011;38941;53.254;6.600;2023-03-23T13:39:20;14.32;;;2.70;;
51836;SDS011;38941;53.254;6.600;2023-03-23T13:41:24;16.10;;;2.47;;
51836;SDS011;38941;53.254;6.600;2023-03-23T13:43:30;11.45;;;2.33;;
51836;SDS011;38941;53.254;6.600;2023-03-23T13:45:43;16.33;;;1.95;;
51836;SDS011;38941;53.254;6.600;2023-03-23T13:47:46;12.82;;;2.03;;
51836;SDS011;38941;53.254;6.600;2023-03-23T13:49:53;16.23;;;1.95;;
51836;SDS011;38941;53.254;6.600;2023-03-23T13:52:13;14.80;;;2.28;;
51836;SDS011;38941;53.254;6.600;2023-03-23T13:54:23;26.92;;;4.22;;
51836;SDS011;38941;53.254;6.600;2023-03-23T13:56:39;22.10;;;2.58;;
51836;SDS011;38941;53.254;6.600;2023-03-23T13:59:28;11.25;;;2.03;;
51836;SDS011;38941;53.254;6.600;2023-03-23T14:03:40;15.48;;;2.65;;
51836;SDS011;38941;53.254;6.600;2023-03-23T14:05:50;18.15;;;3.65;;
51836;SDS011;38941;53.254;6.600;2023-03-23T14:07:55;13.60;;;1.75;;
51836;SDS011;38941;53.254;6.600;2023-03-23T14:10:05;20.08;;;3.55;;
51836;SDS011;38941;53.254;6.600;2023-03-23T14:12:20;14.95;;;2.10;;
51836;SDS011;38941;53.254;6.600;2023-03-23T14:14:27;13.13;;;2.00;;
51836;SDS011;38941;53.254;6.600;2023-03-23T14:17:04;11.25;;;1.77;;